Kezdőlap
METAR-TAF:

METAR-TAF

Repülőterek :

Dayton, Ohio, Amerikai Egyesült Államok

földrajzi szélesség: 39-35-20N, földrajzi hosszúság: 084-13-29W, magasság: 292 m

Jelenlegi meteorológiai megfigyelések

A jelentés 50 perccel ezelõtt készült, 03:53 UTC
Keleti szél 8 kt
Hőmérséklet 23°C
Páratartalom 44%
Légköri nyomás 1017 hPa
Látótávolság: 16.1 km
Derült ég

METAR: KMGY 150353Z AUTO 08008KT 10SM CLR 23/10 A3002 RMK AO2 SLP159 T02280100

Idő: 00:43 (04:43 UTC)


TAF: hiányzik

Meteorológiai megfigyelések és előrejelzések több, mint 4000 repülőtéren (METAR és TAF jelentéseket).

A térképen piros és sárga pontok jelzik az elérhető meteorológiai állomásokat.

Mozgassa az egeret a pont fölött, hogy megjelenjen az állomás neve.

Azután kattintson az időjárási megfigyelések és előrejelzések megtekintéséhez.

A térkép megváltoztatása: kattintson a fekete keresztel jelölt zöld gombra ráközelítéshez, a vonallal jelölt zöld gombra távolításhoz, vagy a zöld nyilakra a szomszédos térképek eléréséhez.


METAR-TAF: